Time;durP1;ratioP1;P1;durP2;ratioP2;P2;SDS_P1;SDS_P2;PMS_P1;PMS_P2;Temp;Humidity;BMP_temperature;BMP_pressure;BME280_temperature;BME280_humidity;BME280_pressure;Samples;Min_cycle;Max_cycle;Signal;HPM_P1;HPM_P2
2021/06/03 00:00:16;;;;;;;2.97;1.91;;;;;;;19.39;53.53;100639.01;;;;-58
2021/06/03 00:03:16;;;;;;;2.87;1.87;;;;;;;19.39;53.51;100642.18;;;;-58
2021/06/03 00:06:16;;;;;;;2.34;1.89;;;;;;;19.39;53.50;100640.47;;;;-58
2021/06/03 00:09:16;;;;;;;1.94;1.73;;;;;;;19.39;53.47;100642.67;;;;-58
2021/06/03 00:12:16;;;;;;;4.39;2.07;;;;;;;19.38;53.53;100642.84;;;;-58
2021/06/03 00:15:16;;;;;;;2.36;1.93;;;;;;;19.38;53.53;100643.86;;;;-58
2021/06/03 00:18:16;;;;;;;2.74;1.91;;;;;;;19.38;53.52;100643.97;;;;-58
2021/06/03 00:21:16;;;;;;;3.69;1.90;;;;;;;19.37;53.47;100645.25;;;;-58
2021/06/03 00:24:16;;;;;;;2.40;1.95;;;;;;;19.37;53.47;100639.07;;;;-57
2021/06/03 00:27:16;;;;;;;2.31;1.80;;;;;;;19.37;53.49;100639.56;;;;-58
2021/06/03 00:30:16;;;;;;;1.97;1.77;;;;;;;19.36;53.47;100642.33;;;;-58
2021/06/03 00:33:16;;;;;;;2.29;1.90;;;;;;;19.35;53.53;100640.59;;;;-58
2021/06/03 00:36:16;;;;;;;1.79;1.63;;;;;;;19.36;53.52;100643.30;;;;-58
2021/06/03 00:39:16;;;;;;;2.63;1.88;;;;;;;19.36;53.54;100648.02;;;;-58
2021/06/03 00:42:16;;;;;;;2.03;1.80;;;;;;;19.35;53.53;100645.88;;;;-58
2021/06/03 00:45:16;;;;;;;1.99;1.79;;;;;;;19.36;53.53;100649.94;;;;-58
2021/06/03 00:48:16;;;;;;;3.00;1.80;;;;;;;19.35;53.48;100650.02;;;;-57
2021/06/03 00:51:16;;;;;;;2.23;1.89;;;;;;;19.34;53.51;100647.72;;;;-58
2021/06/03 00:54:16;;;;;;;1.94;1.74;;;;;;;19.33;53.54;100649.84;;;;-58
2021/06/03 00:57:16;;;;;;;2.43;1.89;;;;;;;19.34;53.54;100653.36;;;;-58
2021/06/03 01:00:16;;;;;;;2.73;1.81;;;;;;;19.34;53.53;100652.36;;;;-58
2021/06/03 01:03:16;;;;;;;2.56;1.87;;;;;;;19.33;53.50;100652.44;;;;-57
2021/06/03 01:06:17;;;;;;;1.90;1.70;;;;;;;19.33;53.50;100651.46;;;;-57
2021/06/03 01:09:16;;;;;;;2.01;1.79;;;;;;;19.32;53.55;100651.63;;;;-58
2021/06/03 01:12:16;;;;;;;1.85;1.70;;;;;;;19.32;53.58;100656.34;;;;-58
2021/06/03 01:15:16;;;;;;;2.24;1.81;;;;;;;19.32;53.52;100659.73;;;;-58
2021/06/03 01:18:16;;;;;;;2.11;1.85;;;;;;;19.32;53.49;100656.56;;;;-58
2021/06/03 01:21:16;;;;;;;2.01;1.80;;;;;;;19.32;53.51;100656.80;;;;-58
2021/06/03 01:24:16;;;;;;;2.03;1.83;;;;;;;19.31;53.50;100663.31;;;;-58
2021/06/03 01:27:16;;;;;;;1.91;1.70;;;;;;;19.32;53.46;100664.69;;;;-58
2021/06/03 01:30:16;;;;;;;2.27;1.71;;;;;;;19.31;53.49;100671.52;;;;-58
2021/06/03 01:33:16;;;;;;;2.37;1.86;;;;;;;19.30;53.49;100671.03;;;;-58
2021/06/03 01:36:16;;;;;;;2.00;1.73;;;;;;;19.30;53.54;100670.79;;;;-58
2021/06/03 01:39:16;;;;;;;2.22;1.65;;;;;;;19.30;53.49;100672.38;;;;-58
2021/06/03 01:42:16;;;;;;;1.97;1.78;;;;;;;19.30;53.49;100673.36;;;;-58
2021/06/03 01:45:16;;;;;;;2.86;1.77;;;;;;;19.29;53.50;100671.00;;;;-58
2021/06/03 01:48:16;;;;;;;1.99;1.77;;;;;;;19.29;53.50;100668.65;;;;-58
2021/06/03 01:51:16;;;;;;;2.30;1.86;;;;;;;19.28;53.55;100669.70;;;;-58
2021/06/03 01:54:16;;;;;;;2.35;1.80;;;;;;;19.29;53.50;100670.44;;;;-58
2021/06/03 01:57:16;;;;;;;2.83;1.79;;;;;;;19.29;53.47;100677.42;;;;-57
2021/06/03 02:00:16;;;;;;;2.11;1.73;;;;;;;19.29;53.48;100678.40;;;;-58
2021/06/03 02:03:16;;;;;;;1.89;1.59;;;;;;;19.28;53.55;100679.87;;;;-58
2021/06/03 02:06:16;;;;;;;1.92;1.71;;;;;;;19.27;53.51;100677.97;;;;-58
2021/06/03 02:09:16;;;;;;;2.00;1.80;;;;;;;19.28;53.52;100675.29;;;;-58
2021/06/03 02:12:16;;;;;;;2.25;1.78;;;;;;;19.27;53.50;100677.73;;;;-58
2021/06/03 02:15:16;;;;;;;2.18;1.79;;;;;;;19.27;53.49;100678.70;;;;-58
2021/06/03 02:18:16;;;;;;;1.85;1.69;;;;;;;19.27;53.52;100676.19;;;;-58
2021/06/03 02:21:16;;;;;;;2.22;1.83;;;;;;;19.27;53.52;100677.56;;;;-58
2021/06/03 02:24:16;;;;;;;2.21;1.79;;;;;;;19.27;53.54;100676.92;;;;-58
2021/06/03 02:27:16;;;;;;;1.86;1.63;;;;;;;19.26;53.49;100680.41;;;;-58
2021/06/03 02:30:16;;;;;;;1.70;1.60;;;;;;;19.26;53.50;100686.27;;;;-58
2021/06/03 02:33:16;;;;;;;1.81;1.70;;;;;;;19.26;53.52;100689.89;;;;-58
2021/06/03 02:36:16;;;;;;;1.89;1.70;;;;;;;19.26;53.55;100692.33;;;;-58
2021/06/03 02:39:16;;;;;;;2.68;1.82;;;;;;;19.26;53.55;100695.09;;;;-58
2021/06/03 02:42:16;;;;;;;1.87;1.68;;;;;;;19.25;53.47;100695.83;;;;-58
2021/06/03 02:45:16;;;;;;;2.55;1.62;;;;;;;19.25;53.50;100696.39;;;;-58
2021/06/03 02:48:16;;;;;;;1.86;1.69;;;;;;;19.25;53.49;100700.53;;;;-58
2021/06/03 02:51:16;;;;;;;2.04;1.71;;;;;;;19.25;53.53;100700.95;;;;-58
2021/06/03 02:54:16;;;;;;;1.99;1.79;;;;;;;19.25;53.49;100700.86;;;;-58
2021/06/03 02:57:16;;;;;;;1.63;1.53;;;;;;;19.24;53.50;100703.95;;;;-58
2021/06/03 03:00:16;;;;;;;1.68;1.57;;;;;;;19.24;53.54;100706.39;;;;-58
2021/06/03 03:03:16;;;;;;;1.87;1.74;;;;;;;19.24;53.52;100707.86;;;;-57
2021/06/03 03:06:16;;;;;;;1.99;1.75;;;;;;;19.24;53.52;100706.31;;;;-58
2021/06/03 03:09:16;;;;;;;2.03;1.77;;;;;;;19.23;53.51;100708.96;;;;-58
2021/06/03 03:12:16;;;;;;;2.05;1.85;;;;;;;19.24;53.56;100715.25;;;;-57
2021/06/03 03:15:16;;;;;;;2.25;1.83;;;;;;;19.23;53.50;100717.98;;;;-58
2021/06/03 03:18:16;;;;;;;1.95;1.69;;;;;;;19.22;53.53;100713.68;;;;-58
2021/06/03 03:21:16;;;;;;;1.73;1.63;;;;;;;19.22;53.52;100718.72;;;;-57
2021/06/03 03:24:16;;;;;;;1.76;1.61;;;;;;;19.23;53.51;100718.72;;;;-58
2021/06/03 03:27:16;;;;;;;2.17;1.77;;;;;;;19.23;53.49;100719.13;;;;-58
2021/06/03 03:30:16;;;;;;;2.00;1.80;;;;;;;19.23;53.52;100718.72;;;;-58
2021/06/03 03:33:16;;;;;;;2.15;1.81;;;;;;;19.22;53.53;100722.13;;;;-58
2021/06/03 03:36:16;;;;;;;1.69;1.55;;;;;;;19.21;53.52;100718.36;;;;-57
2021/06/03 03:39:16;;;;;;;2.07;1.77;;;;;;;19.22;53.54;100717.09;;;;-58
2021/06/03 03:42:16;;;;;;;3.13;1.71;;;;;;;19.22;53.52;100716.93;;;;-58
2021/06/03 03:45:16;;;;;;;1.78;1.65;;;;;;;19.21;53.51;100720.23;;;;-58
2021/06/03 03:48:16;;;;;;;1.88;1.69;;;;;;;19.22;53.51;100725.46;;;;-58
2021/06/03 03:51:16;;;;;;;1.90;1.70;;;;;;;19.21;53.53;100726.57;;;;-58
2021/06/03 03:54:16;;;;;;;1.78;1.68;;;;;;;19.21;53.54;100729.17;;;;-57
2021/06/03 03:57:18;;;;;;;1.81;1.70;;;;;;;19.21;53.53;100730.71;;;;-58
2021/06/03 04:00:16;;;;;;;2.09;1.75;;;;;;;19.21;53.59;100735.10;;;;-57
2021/06/03 04:03:16;;;;;;;1.79;1.69;;;;;;;19.21;53.53;100734.86;;;;-58
2021/06/03 04:06:16;;;;;;;1.66;1.56;;;;;;;19.21;53.51;100734.94;;;;-57
2021/06/03 04:09:16;;;;;;;1.78;1.61;;;;;;;19.20;53.52;100733.88;;;;-57
2021/06/03 04:12:16;;;;;;;1.92;1.75;;;;;;;19.20;53.53;100733.40;;;;-57
2021/06/03 04:15:16;;;;;;;1.78;1.68;;;;;;;19.20;53.53;100741.44;;;;-57
2021/06/03 04:18:16;;;;;;;1.95;1.72;;;;;;;19.20;53.53;100743.23;;;;-57
2021/06/03 04:21:16;;;;;;;1.76;1.62;;;;;;;19.20;53.55;100748.10;;;;-57
2021/06/03 04:24:16;;;;;;;1.91;1.75;;;;;;;19.20;53.47;100751.19;;;;-57
2021/06/03 04:27:16;;;;;;;1.73;1.59;;;;;;;19.20;53.53;100757.69;;;;-57
2021/06/03 04:30:16;;;;;;;1.83;1.61;;;;;;;19.20;53.51;100761.52;;;;-57
2021/06/03 04:33:20;;;;;;;1.69;1.59;;;;;;;19.19;53.53;100761.73;;;;-57
2021/06/03 04:36:16;;;;;;;1.80;1.70;;;;;;;19.19;53.50;100768.22;;;;-57
2021/06/03 04:39:16;;;;;;;1.75;1.65;;;;;;;19.19;53.52;100769.61;;;;-57
2021/06/03 04:42:16;;;;;;;1.69;1.59;;;;;;;19.20;53.48;100775.16;;;;-57
2021/06/03 04:45:16;;;;;;;1.67;1.57;;;;;;;19.19;53.51;100780.73;;;;-57
2021/06/03 04:48:16;;;;;;;1.81;1.65;;;;;;;19.18;53.48;100785.53;;;;-57
2021/06/03 04:51:16;;;;;;;1.82;1.69;;;;;;;19.18;53.53;100784.88;;;;-57
2021/06/03 04:54:16;;;;;;;1.79;1.69;;;;;;;19.18;53.50;100786.34;;;;-57
2021/06/03 04:57:16;;;;;;;1.70;1.60;;;;;;;19.18;53.49;100788.62;;;;-57
2021/06/03 05:00:16;;;;;;;1.74;1.59;;;;;;;19.18;53.52;100787.56;;;;-57
2021/06/03 05:03:16;;;;;;;1.76;1.65;;;;;;;19.18;53.50;100787.41;;;;-57
2021/06/03 05:06:16;;;;;;;1.76;1.62;;;;;;;19.17;53.49;100784.56;;;;-57
2021/06/03 05:09:16;;;;;;;1.80;1.60;;;;;;;19.18;53.50;100789.27;;;;-57
2021/06/03 05:12:16;;;;;;;1.81;1.64;;;;;;;19.18;53.50;100790.33;;;;-57
2021/06/03 05:15:16;;;;;;;1.70;1.60;;;;;;;19.18;53.50;100791.70;;;;-57
2021/06/03 05:18:16;;;;;;;1.62;1.52;;;;;;;19.18;53.52;100792.52;;;;-57
2021/06/03 05:21:16;;;;;;;1.65;1.55;;;;;;;19.18;53.47;100792.69;;;;-58
2021/06/03 05:24:16;;;;;;;5.27;1.85;;;;;;;19.19;54.12;100797.15;;;;-59
2021/06/03 05:27:16;;;;;;;2.26;2.03;;;;;;;19.19;55.23;100799.09;;;;-57
2021/06/03 05:30:16;;;;;;;2.27;1.95;;;;;;;19.19;54.91;100799.02;;;;-57
2021/06/03 05:33:16;;;;;;;2.57;1.93;;;;;;;19.20;54.56;100802.87;;;;-57
2021/06/03 05:36:16;;;;;;;5.29;1.95;;;;;;;19.19;54.32;100803.97;;;;-54
2021/06/03 05:39:16;;;;;;;2.35;1.76;;;;;;;19.20;54.32;100804.16;;;;-54
2021/06/03 05:42:16;;;;;;;2.03;1.88;;;;;;;19.20;54.24;100806.77;;;;-54
2021/06/03 05:45:16;;;;;;;2.14;1.94;;;;;;;19.20;54.21;100809.45;;;;-57
2021/06/03 05:48:16;;;;;;;2.14;1.94;;;;;;;19.19;54.19;100814.62;;;;-57
2021/06/03 05:51:16;;;;;;;2.10;1.90;;;;;;;19.19;54.21;100819.73;;;;-53
2021/06/03 05:54:16;;;;;;;2.15;1.97;;;;;;;19.19;54.12;100824.05;;;;-53
2021/06/03 05:57:16;;;;;;;3.28;1.97;;;;;;;19.20;54.05;100829.76;;;;-58
2021/06/03 06:00:16;;;;;;;2.27;1.95;;;;;;;19.19;54.07;100831.11;;;;-58
2021/06/03 06:03:17;;;;;;;2.07;1.85;;;;;;;19.19;54.01;100834.36;;;;-57
2021/06/03 06:06:24;;;;;;;2.32;1.77;;;;;;;19.19;54.04;100838.02;;;;-58
2021/06/03 06:09:16;;;;;;;2.49;1.90;;;;;;;19.19;54.00;100840.70;;;;-53
2021/06/03 06:12:16;;;;;;;2.14;1.94;;;;;;;19.19;53.99;100838.02;;;;-53
2021/06/03 06:15:16;;;;;;;1.95;1.83;;;;;;;19.20;53.97;100842.59;;;;-58
2021/06/03 06:18:16;;;;;;;2.29;1.95;;;;;;;19.19;53.93;100844.44;;;;-58
2021/06/03 06:21:16;;;;;;;2.08;1.89;;;;;;;19.19;53.97;100840.86;;;;-58
2021/06/03 06:24:16;;;;;;;1.96;1.75;;;;;;;19.19;53.86;100847.44;;;;-58
2021/06/03 06:27:16;;;;;;;1.99;1.82;;;;;;;19.19;53.90;100849.96;;;;-58
2021/06/03 06:30:16;;;;;;;1.89;1.79;;;;;;;19.19;53.89;100852.48;;;;-58
2021/06/03 06:33:16;;;;;;;2.20;1.85;;;;;;;19.18;53.90;100852.97;;;;-58
2021/06/03 06:36:16;;;;;;;1.75;1.65;;;;;;;19.19;53.84;100859.71;;;;-53
2021/06/03 06:39:17;;;;;;;2.24;1.90;;;;;;;19.19;53.85;100863.69;;;;-53
2021/06/03 06:42:16;;;;;;;2.11;1.94;;;;;;;19.19;53.86;100865.80;;;;-53
2021/06/03 06:45:16;;;;;;;2.76;1.84;;;;;;;19.19;53.82;100870.44;;;;-57
2021/06/03 06:48:16;;;;;;;1.93;1.83;;;;;;;19.19;53.75;100869.78;;;;-57
2021/06/03 06:51:16;;;;;;;2.19;1.99;;;;;;;19.19;53.83;100871.17;;;;-54
2021/06/03 06:54:16;;;;;;;2.02;1.83;;;;;;;19.19;53.79;100871.41;;;;-53
2021/06/03 06:57:16;;;;;;;1.98;1.77;;;;;;;19.18;53.79;100872.30;;;;-53
2021/06/03 07:00:16;;;;;;;2.21;1.98;;;;;;;19.18;53.76;100872.22;;;;-53
2021/06/03 07:03:16;;;;;;;2.29;1.80;;;;;;;19.19;53.77;100874.98;;;;-53
2021/06/03 07:06:16;;;;;;;1.90;1.80;;;;;;;19.18;53.77;100871.81;;;;-57
2021/06/03 07:09:16;;;;;;;2.10;1.90;;;;;;;19.18;53.79;100870.35;;;;-58
2021/06/03 07:12:16;;;;;;;1.92;1.80;;;;;;;19.18;53.80;100868.89;;;;-58
2021/06/03 07:15:16;;;;;;;1.97;1.83;;;;;;;19.18;53.75;100867.75;;;;-58
2021/06/03 07:18:16;;;;;;;2.73;1.84;;;;;;;19.18;53.68;100867.59;;;;-58
2021/06/03 07:21:16;;;;;;;2.58;1.91;;;;;;;19.18;53.68;100868.65;;;;-58
2021/06/03 07:24:16;;;;;;;1.80;1.70;;;;;;;19.19;53.68;100870.27;;;;-58
2021/06/03 07:27:16;;;;;;;1.98;1.79;;;;;;;19.18;53.71;100863.45;;;;-58
2021/06/03 07:30:16;;;;;;;1.99;1.86;;;;;;;19.18;53.65;100864.50;;;;-58
2021/06/03 07:33:16;;;;;;;2.10;1.90;;;;;;;19.18;53.70;100865.80;;;;-57
2021/06/03 07:36:16;;;;;;;1.77;1.67;;;;;;;19.17;53.67;100869.27;;;;-57
2021/06/03 07:39:16;;;;;;;1.84;1.71;;;;;;;19.18;53.68;100867.92;;;;-57
2021/06/03 07:42:16;;;;;;;2.04;1.84;;;;;;;19.18;53.67;100866.86;;;;-54
2021/06/03 07:45:16;;;;;;;1.81;1.70;;;;;;;19.17;53.67;100861.14;;;;-54
2021/06/03 07:48:16;;;;;;;1.67;1.57;;;;;;;19.17;53.65;100861.63;;;;-54
2021/06/03 07:51:15;;;;;;;1.80;1.67;;;;;;;19.18;53.60;100864.91;;;;-54
2021/06/03 07:54:16;;;;;;;1.89;1.79;;;;;;;19.17;53.60;100867.64;;;;-57
2021/06/03 07:57:16;;;;;;;1.83;1.73;;;;;;;19.17;53.61;100869.27;;;;-57
2021/06/03 08:00:16;;;;;;;1.88;1.71;;;;;;;19.17;53.60;100869.11;;;;-57
2021/06/03 08:03:16;;;;;;;1.70;1.60;;;;;;;19.17;53.64;100871.66;;;;-58
2021/06/03 08:06:16;;;;;;;1.75;1.65;;;;;;;19.17;53.56;100871.66;;;;-57
2021/06/03 08:09:16;;;;;;;2.01;1.79;;;;;;;19.18;53.59;100871.58;;;;-56
2021/06/03 08:12:16;;;;;;;1.77;1.67;;;;;;;19.17;53.57;100866.27;;;;-57
2021/06/03 08:15:16;;;;;;;1.80;1.70;;;;;;;19.17;53.61;100868.08;;;;-57
2021/06/03 08:18:16;;;;;;;1.75;1.65;;;;;;;19.18;53.60;100868.33;;;;-57
2021/06/03 08:21:16;;;;;;;1.81;1.71;;;;;;;19.17;53.58;100863.09;;;;-57
2021/06/03 08:24:15;;;;;;;1.81;1.69;;;;;;;19.17;53.60;100860.17;;;;-57
2021/06/03 08:27:16;;;;;;;1.83;1.73;;;;;;;19.17;53.56;100861.23;;;;-54
2021/06/03 08:30:16;;;;;;;3.62;1.94;;;;;;;19.17;53.96;100861.63;;;;-53
2021/06/03 08:33:16;;;;;;;2.74;1.70;;;;;;;19.19;54.23;100857.19;;;;-52
2021/06/03 08:36:16;;;;;;;2.06;1.86;;;;;;;19.20;54.49;100857.05;;;;-50
2021/06/03 08:39:15;;;;;;;2.01;1.80;;;;;;;19.22;54.52;100856.11;;;;-53
2021/06/03 08:42:16;;;;;;;3.39;1.81;;;;;;;19.24;54.59;100855.73;;;;-54
2021/06/03 08:45:16;;;;;;;1.71;1.61;;;;;;;19.25;54.71;100861.26;;;;-52
2021/06/03 08:48:16;;;;;;;2.29;1.80;;;;;;;19.27;54.77;100855.92;;;;-59
2021/06/03 08:51:17;;;;;;;2.00;1.70;;;;;;;19.28;54.71;100858.77;;;;-49
2021/06/03 08:54:16;;;;;;;3.29;1.80;;;;;;;19.31;54.75;100856.71;;;;-61
2021/06/03 08:57:16;;;;;;;2.00;1.80;;;;;;;19.32;54.79;100856.09;;;;-53
2021/06/03 09:00:16;;;;;;;2.61;1.77;;;;;;;19.35;54.85;100853.76;;;;-57
2021/06/03 09:03:16;;;;;;;2.22;1.73;;;;;;;19.35;54.89;100848.23;;;;-60
2021/06/03 09:06:16;;;;;;;4.09;1.81;;;;;;;19.38;54.86;100850.29;;;;-59
2021/06/03 09:09:16;;;;;;;2.56;1.71;;;;;;;19.38;54.70;100848.74;;;;-59
2021/06/03 09:12:18;;;;;;;2.65;1.75;;;;;;;19.38;54.83;100849.91;;;;-56
2021/06/03 09:15:16;;;;;;;3.41;1.79;;;;;;;19.40;54.87;100848.36;;;;-51
2021/06/03 09:18:16;;;;;;;2.49;1.69;;;;;;;19.41;54.88;100847.17;;;;-49
2021/06/03 09:21:16;;;;;;;2.50;1.61;;;;;;;19.42;54.75;100854.84;;;;-59
2021/06/03 09:24:16;;;;;;;2.40;1.75;;;;;;;19.44;54.89;100851.42;;;;-49
2021/06/03 09:27:16;;;;;;;2.75;1.75;;;;;;;19.44;54.91;100851.95;;;;-54
2021/06/03 09:30:16;;;;;;;3.72;1.69;;;;;;;19.45;54.92;100853.33;;;;-49
2021/06/03 09:33:16;;;;;;;3.51;1.60;;;;;;;19.46;54.90;100845.84;;;;-50
2021/06/03 09:36:15;;;;;;;2.11;1.75;;;;;;;19.47;54.73;100846.93;;;;-53
2021/06/03 09:39:16;;;;;;;2.98;1.63;;;;;;;19.48;54.73;100847.91;;;;-51
2021/06/03 09:42:18;;;;;;;3.05;1.71;;;;;;;19.49;54.70;100844.03;;;;-52
2021/06/03 09:45:16;;;;;;;1.70;1.60;;;;;;;19.50;54.72;100842.97;;;;-51
2021/06/03 09:48:16;;;;;;;2.49;1.79;;;;;;;19.51;54.74;100844.55;;;;-52
2021/06/03 09:51:15;;;;;;;3.00;1.72;;;;;;;19.52;54.75;100841.69;;;;-58
2021/06/03 09:54:16;;;;;;;2.39;1.76;;;;;;;19.53;54.80;100837.50;;;;-59
2021/06/03 09:57:16;;;;;;;3.57;2.00;;;;;;;19.55;54.70;100837.89;;;;-51
2021/06/03 10:00:17;;;;;;;6.92;1.79;;;;;;;19.53;54.69;100835.70;;;;-63
2021/06/03 10:03:16;;;;;;;4.67;1.84;;;;;;;19.55;55.01;100837.11;;;;-52
2021/06/03 10:06:16;;;;;;;3.81;1.93;;;;;;;19.54;54.75;100838.71;;;;-52
2021/06/03 10:09:15;;;;;;;2.27;1.73;;;;;;;19.54;54.72;100840.34;;;;-52
2021/06/03 10:12:16;;;;;;;2.43;1.79;;;;;;;19.54;54.69;100840.83;;;;-58
2021/06/03 10:15:15;;;;;;;2.45;1.76;;;;;;;19.53;54.63;100842.05;;;;-58
2021/06/03 10:18:16;;;;;;;3.09;1.70;;;;;;;19.53;54.59;100846.52;;;;-52
2021/06/03 10:21:16;;;;;;;2.59;1.69;;;;;;;19.52;54.55;100843.16;;;;-58
2021/06/03 10:24:16;;;;;;;4.09;1.79;;;;;;;19.52;54.46;100833.81;;;;-58
2021/06/03 10:28:16;;;;;;;2.81;1.71;;;;;;;19.52;54.48;100835.59;;;;-57
2021/06/03 10:31:15;;;;;;;2.08;1.78;;;;;;;19.51;54.37;100828.69;;;;-58
2021/06/03 10:34:16;;;;;;;1.91;1.73;;;;;;;19.52;54.35;100839.09;;;;-52
2021/06/03 10:37:16;;;;;;;2.21;1.80;;;;;;;19.52;54.31;100835.27;;;;-58
2021/06/03 10:40:16;;;;;;;2.10;1.70;;;;;;;19.52;54.33;100828.53;;;;-52
2021/06/03 10:43:16;;;;;;;2.25;1.70;;;;;;;19.52;54.27;100831.86;;;;-52
2021/06/03 10:46:15;;;;;;;1.70;1.60;;;;;;;19.52;54.27;100833.00;;;;-52
2021/06/03 10:49:16;;;;;;;3.91;1.80;;;;;;;19.52;54.25;100832.34;;;;-51
2021/06/03 10:52:16;;;;;;;2.63;1.71;;;;;;;19.51;54.26;100820.97;;;;-52
2021/06/03 10:55:16;;;;;;;1.79;1.62;;;;;;;19.51;54.14;100823.89;;;;-52
2021/06/03 10:58:16;;;;;;;2.21;1.73;;;;;;;19.51;54.19;100827.39;;;;-57
2021/06/03 11:01:16;;;;;;;2.42;1.63;;;;;;;19.51;54.15;100819.34;;;;-58
2021/06/03 11:04:16;;;;;;;2.46;1.71;;;;;;;19.51;54.19;100822.11;;;;-58
2021/06/03 11:07:16;;;;;;;4.29;1.93;;;;;;;19.50;54.09;100818.26;;;;-58
2021/06/03 11:10:15;;;;;;;1.83;1.69;;;;;;;19.51;54.09;100819.50;;;;-58
2021/06/03 11:13:16;;;;;;;1.91;1.71;;;;;;;19.51;54.10;100814.38;;;;-52
2021/06/03 11:16:16;;;;;;;2.03;1.59;;;;;;;19.51;54.09;100813.25;;;;-52
2021/06/03 11:19:16;;;;;;;2.05;1.81;;;;;;;19.50;54.05;100807.94;;;;-52
2021/06/03 11:22:16;;;;;;;2.42;1.70;;;;;;;19.50;54.07;100810.78;;;;-52
2021/06/03 11:25:16;;;;;;;2.81;1.69;;;;;;;19.49;54.12;100808.75;;;;-52
2021/06/03 11:28:15;;;;;;;2.33;1.76;;;;;;;19.50;54.05;100806.80;;;;-52
2021/06/03 11:31:16;;;;;;;1.81;1.48;;;;;;;19.49;54.07;100804.03;;;;-52
2021/06/03 11:34:15;;;;;;;2.19;1.71;;;;;;;19.50;54.05;100804.68;;;;-52
2021/06/03 11:37:16;;;;;;;1.79;1.61;;;;;;;19.49;54.02;100803.55;;;;-58
2021/06/03 11:40:17;;;;;;;2.13;1.69;;;;;;;19.49;54.06;100798.02;;;;-59
2021/06/03 11:43:15;;;;;;;1.80;1.70;;;;;;;19.49;54.12;100795.42;;;;-59
2021/06/03 11:46:16;;;;;;;1.71;1.51;;;;;;;19.49;54.11;100791.59;;;;-60
2021/06/03 11:51:16;;;;;;;2.15;1.65;;;;;;;19.49;54.04;100786.80;;;;-58
2021/06/03 11:54:16;;;;;;;2.65;1.65;;;;;;;19.50;54.20;100781.03;;;;-55
2021/06/03 11:57:16;;;;;;;2.23;1.70;;;;;;;19.52;54.29;100780.64;;;;-57
2021/06/03 12:00:15;;;;;;;1.81;1.71;;;;;;;19.54;54.30;100774.33;;;;-54
2021/06/03 12:03:16;;;;;;;2.74;1.75;;;;;;;19.55;54.17;100770.78;;;;-60
2021/06/03 12:06:15;;;;;;;3.01;1.76;;;;;;;19.54;54.22;100758.64;;;;-60
2021/06/03 12:09:15;;;;;;;1.63;1.53;;;;;;;19.54;54.31;100767.50;;;;-53
2021/06/03 12:12:16;;;;;;;1.75;1.61;;;;;;;19.54;54.25;100761.48;;;;-54
2021/06/03 12:15:16;;;;;;;1.73;1.61;;;;;;;19.54;54.18;100759.86;;;;-53
2021/06/03 12:18:16;;;;;;;2.51;1.68;;;;;;;19.53;54.25;100760.91;;;;-53
2021/06/03 12:21:15;;;;;;;1.70;1.60;;;;;;;19.53;54.25;100760.75;;;;-53
2021/06/03 12:24:15;;;;;;;2.58;1.83;;;;;;;19.54;54.20;100763.77;;;;-53
2021/06/03 12:27:16;;;;;;;3.27;1.79;;;;;;;19.54;54.18;100760.10;;;;-53
2021/06/03 12:30:16;;;;;;;2.44;1.80;;;;;;;19.53;54.23;100750.84;;;;-53
2021/06/03 12:33:16;;;;;;;1.97;1.77;;;;;;;19.53;54.19;100747.59;;;;-54
2021/06/03 12:36:16;;;;;;;1.81;1.59;;;;;;;19.53;54.20;100745.96;;;;-54
2021/06/03 12:39:15;;;;;;;2.01;1.66;;;;;;;19.53;54.19;100739.84;;;;-54
2021/06/03 12:42:15;;;;;;;4.06;1.75;;;;;;;19.53;54.12;100739.30;;;;-54
2021/06/03 12:45:17;;;;;;;1.75;1.60;;;;;;;19.53;54.15;100736.94;;;;-54
2021/06/03 12:48:15;;;;;;;1.69;1.59;;;;;;;19.53;54.17;100740.35;;;;-60
2021/06/03 12:51:16;;;;;;;1.97;1.61;;;;;;;19.53;54.19;100745.36;;;;-54
2021/06/03 12:54:15;;;;;;;2.64;1.71;;;;;;;19.53;54.18;100736.94;;;;-53
2021/06/03 12:57:16;;;;;;;3.24;1.76;;;;;;;19.53;54.18;100735.23;;;;-53
2021/06/03 13:00:16;;;;;;;1.82;1.69;;;;;;;19.53;54.12;100733.98;;;;-53
2021/06/03 13:03:15;;;;;;;10.48;1.75;;;;;;;19.53;54.35;100734.91;;;;-57
2021/06/03 13:06:16;;;;;;;2.79;1.85;;;;;;;19.54;54.55;100731.73;;;;-62
2021/06/03 13:09:16;;;;;;;1.90;1.59;;;;;;;19.56;54.69;100732.23;;;;-51
2021/06/03 13:12:15;;;;;;;2.47;1.77;;;;;;;19.57;54.69;100727.14;;;;-53
2021/06/03 13:15:16;;;;;;;2.06;1.70;;;;;;;19.58;54.60;100728.20;;;;-54
2021/06/03 13:18:16;;;;;;;2.40;1.77;;;;;;;19.61;55.00;100725.53;;;;-53
2021/06/03 13:21:15;;;;;;;1.93;1.62;;;;;;;19.61;54.92;100722.96;;;;-60
2021/06/03 13:24:16;;;;;;;2.45;1.69;;;;;;;19.62;54.94;100725.96;;;;-52
2021/06/03 13:27:15;;;;;;;3.51;1.71;;;;;;;19.63;54.94;100715.17;;;;-53
2021/06/03 13:30:15;;;;;;;2.75;1.69;;;;;;;19.65;55.09;100715.49;;;;-51
2021/06/03 13:33:16;;;;;;;2.05;1.43;;;;;;;19.66;55.03;100715.76;;;;-51
2021/06/03 13:36:15;;;;;;;2.60;1.76;;;;;;;19.67;55.00;100713.50;;;;-52
2021/06/03 13:39:15;;;;;;;1.92;1.61;;;;;;;19.68;54.92;100714.31;;;;-49
2021/06/03 13:42:16;;;;;;;3.10;1.69;;;;;;;19.68;54.99;100710.33;;;;-52
2021/06/03 13:45:16;;;;;;;1.99;1.75;;;;;;;19.71;55.34;100712.01;;;;-53
2021/06/03 13:48:15;;;;;;;3.28;1.80;;;;;;;19.70;54.85;100715.48;;;;-53
2021/06/03 13:51:15;;;;;;;2.35;1.63;;;;;;;19.69;54.87;100711.09;;;;-52
2021/06/03 13:54:15;;;;;;;3.22;1.63;;;;;;;19.69;54.84;100709.52;;;;-53
2021/06/03 13:57:16;;;;;;;2.71;1.69;;;;;;;19.68;54.81;100702.61;;;;-53
2021/06/03 14:00:15;;;;;;;2.27;1.63;;;;;;;19.68;55.02;100700.49;;;;-51
2021/06/03 14:03:16;;;;;;;2.57;1.67;;;;;;;19.71;55.03;100697.86;;;;-60
2021/06/03 14:06:16;;;;;;;2.81;1.81;;;;;;;19.72;55.11;100691.70;;;;-56
2021/06/03 14:09:15;;;;;;;5.89;1.72;;;;;;;19.73;55.00;100692.34;;;;-52
2021/06/03 14:12:22;;;;;;;3.91;1.61;;;;;;;19.75;55.11;100692.61;;;;-54
2021/06/03 14:15:16;;;;;;;1.99;1.69;;;;;;;19.75;55.06;100689.77;;;;-50
2021/06/03 14:18:15;;;;;;;2.26;1.68;;;;;;;19.76;55.19;100688.33;;;;-51
2021/06/03 14:21:16;;;;;;;3.97;1.79;;;;;;;19.77;55.17;100691.48;;;;-53
2021/06/03 14:24:15;;;;;;;4.45;1.71;;;;;;;19.77;55.01;100683.11;;;;-53
2021/06/03 14:27:16;;;;;;;2.01;1.67;;;;;;;19.77;55.14;100689.38;;;;-53
2021/06/03 14:30:16;;;;;;;3.00;1.55;;;;;;;19.76;54.89;100686.05;;;;-54
2021/06/03 14:33:15;;;;;;;1.84;1.66;;;;;;;19.77;55.32;100678.39;;;;-54
2021/06/03 14:36:15;;;;;;;2.61;1.65;;;;;;;19.79;55.17;100671.18;;;;-54
2021/06/03 14:39:15;;;;;;;3.12;1.78;;;;;;;19.79;55.12;100673.94;;;;-48
2021/06/03 14:42:15;;;;;;;4.33;1.69;;;;;;;19.82;55.49;100666.91;;;;-51
2021/06/03 14:45:16;;;;;;;6.43;2.05;;;;;;;19.81;55.08;100662.41;;;;-51
2021/06/03 14:48:15;;;;;;;6.55;1.80;;;;;;;19.81;55.11;100665.17;;;;-52
2021/06/03 14:51:16;;;;;;;6.07;1.77;;;;;;;19.80;55.05;100665.42;;;;-52
2021/06/03 14:54:15;;;;;;;5.24;1.99;;;;;;;19.79;55.02;100667.59;;;;-51
2021/06/03 14:57:15;;;;;;;7.42;1.94;;;;;;;19.78;54.98;100665.16;;;;-52
2021/06/03 15:00:16;;;;;;;2.55;1.74;;;;;;;19.77;54.91;100669.61;;;;-52
2021/06/03 15:03:16;;;;;;;2.19;1.66;;;;;;;19.77;54.90;100669.38;;;;-52
2021/06/03 15:06:15;;;;;;;5.13;1.92;;;;;;;19.77;54.83;100675.80;;;;-52
2021/06/03 15:09:16;;;;;;;3.63;1.69;;;;;;;19.76;54.74;100675.88;;;;-51
2021/06/03 15:12:15;;;;;;;2.45;1.79;;;;;;;19.76;54.74;100670.59;;;;-52
2021/06/03 15:15:16;;;;;;;2.73;1.78;;;;;;;19.76;54.71;100675.23;;;;-52
2021/06/03 15:18:16;;;;;;;3.51;1.79;;;;;;;19.75;54.56;100673.91;;;;-52
2021/06/03 15:21:15;;;;;;;3.69;1.71;;;;;;;19.75;54.61;100679.44;;;;-52
2021/06/03 15:24:15;;;;;;;3.77;1.68;;;;;;;19.75;54.59;100673.91;;;;-52
2021/06/03 15:27:15;;;;;;;2.48;1.83;;;;;;;19.74;54.58;100670.73;;;;-52
2021/06/03 15:30:15;;;;;;;4.51;1.70;;;;;;;19.74;54.53;100674.08;;;;-52
2021/06/03 15:33:16;;;;;;;2.79;1.64;;;;;;;19.74;54.56;100670.42;;;;-51
2021/06/03 15:36:16;;;;;;;3.90;1.80;;;;;;;19.74;54.50;100672.86;;;;-52
2021/06/03 15:39:16;;;;;;;3.28;1.73;;;;;;;19.73;54.40;100675.67;;;;-52
2021/06/03 15:42:16;;;;;;;3.22;1.75;;;;;;;19.73;54.44;100671.77;;;;-52
2021/06/03 15:45:15;;;;;;;1.99;1.52;;;;;;;19.73;54.47;100673.16;;;;-52
2021/06/03 15:48:18;;;;;;;2.97;1.73;;;;;;;19.73;54.44;100677.38;;;;-52
2021/06/03 15:51:15;;;;;;;2.56;1.60;;;;;;;19.73;54.40;100682.19;;;;-53
2021/06/03 15:54:15;;;;;;;3.71;1.81;;;;;;;19.72;54.62;100685.84;;;;-59
2021/06/03 15:57:16;;;;;;;2.34;1.69;;;;;;;19.74;54.76;100687.41;;;;-64
2021/06/03 16:00:15;;;;;;;2.69;1.70;;;;;;;19.75;54.79;100691.06;;;;-64
2021/06/03 16:03:15;;;;;;;3.43;1.73;;;;;;;19.76;54.92;100691.41;;;;-62
2021/06/03 16:06:15;;;;;;;2.65;1.79;;;;;;;19.78;54.94;100696.88;;;;-62
2021/06/03 16:09:15;;;;;;;2.25;1.75;;;;;;;19.80;54.92;100700.64;;;;-63
2021/06/03 16:12:15;;;;;;;3.27;1.65;;;;;;;19.80;54.96;100701.61;;;;-53
2021/06/03 16:15:15;;;;;;;2.49;1.56;;;;;;;19.82;55.07;100705.05;;;;-54
2021/06/03 16:18:16;;;;;;;4.45;1.60;;;;;;;19.82;54.99;100703.50;;;;-57
2021/06/03 16:21:16;;;;;;;2.09;1.59;;;;;;;19.83;55.06;100706.27;;;;-54
2021/06/03 16:24:15;;;;;;;2.94;1.69;;;;;;;19.84;54.99;100710.92;;;;-54
2021/06/03 16:27:16;;;;;;;2.91;1.57;;;;;;;19.86;55.03;100712.08;;;;-57
2021/06/03 16:30:19;;;;;;;8.75;1.70;;;;;;;19.86;55.15;100709.97;;;;-52
2021/06/03 16:33:15;;;;;;;5.85;1.57;;;;;;;19.88;55.26;100706.73;;;;-53
2021/06/03 16:36:16;;;;;;;2.62;1.61;;;;;;;19.89;55.17;100707.45;;;;-53
2021/06/03 16:39:15;;;;;;;4.27;1.77;;;;;;;19.88;55.20;100707.55;;;;-54
2021/06/03 16:42:15;;;;;;;2.26;1.61;;;;;;;19.89;55.11;100708.03;;;;-57
2021/06/03 16:45:16;;;;;;;4.59;1.55;;;;;;;19.90;55.35;100709.27;;;;-61